sensor_id;sensor_type;location;lat;lon;timestamp;pressure;altitude;pressure_sealevel;temperature;humidity
71465;BME280;59274;49.874;9.154;2022-12-18T00:01:33;101784.91;;;-9.15;97.48
71465;BME280;59274;49.874;9.154;2022-12-18T00:04:01;101786.69;;;-9.02;97.12
71465;BME280;59274;49.874;9.154;2022-12-18T00:06:29;101787.94;;;-9.04;97.00
71465;BME280;59274;49.874;9.154;2022-12-18T00:08:55;101791.38;;;-9.04;97.02
71465;BME280;59274;49.874;9.154;2022-12-18T00:11:23;101799.66;;;-9.00;96.96
71465;BME280;59274;49.874;9.154;2022-12-18T00:13:49;101805.13;;;-8.95;97.44
71465;BME280;59274;49.874;9.154;2022-12-18T00:16:18;101808.97;;;-8.91;97.15
71465;BME280;59274;49.874;9.154;2022-12-18T00:18:48;101814.22;;;-8.85;97.32
71465;BME280;59274;49.874;9.154;2022-12-18T00:21:15;101818.66;;;-8.85;97.48
71465;BME280;59274;49.874;9.154;2022-12-18T00:23:42;101818.88;;;-8.87;97.38
71465;BME280;59274;49.874;9.154;2022-12-18T00:26:19;101808.13;;;-8.85;97.80
71465;BME280;59274;49.874;9.154;2022-12-18T00:28:46;101820.66;;;-8.81;97.83
71465;BME280;59274;49.874;9.154;2022-12-18T00:31:15;101816.81;;;-8.78;97.51
71465;BME280;59274;49.874;9.154;2022-12-18T00:33:41;101827.56;;;-8.86;96.91
71465;BME280;59274;49.874;9.154;2022-12-18T00:36:15;101828.78;;;-8.82;97.23
71465;BME280;59274;49.874;9.154;2022-12-18T00:38:42;101816.81;;;-8.78;96.64
71465;BME280;59274;49.874;9.154;2022-12-18T00:41:09;101812.56;;;-8.73;96.58
71465;BME280;59274;49.874;9.154;2022-12-18T00:43:35;101817.81;;;-8.73;96.59
71465;BME280;59274;49.874;9.154;2022-12-18T00:46:01;101820.66;;;-8.81;96.66
71465;BME280;59274;49.874;9.154;2022-12-18T00:48:26;101808.13;;;-8.79;96.94
71465;BME280;59274;49.874;9.154;2022-12-18T00:50:52;101817.84;;;-8.79;96.62
71465;BME280;59274;49.874;9.154;2022-12-18T00:53:17;101817.03;;;-8.80;96.71
71465;BME280;59274;49.874;9.154;2022-12-18T00:55:43;101824.72;;;-8.78;96.80
71465;BME280;59274;49.874;9.154;2022-12-18T00:58:10;101821.28;;;-8.85;96.90
71465;BME280;59274;49.874;9.154;2022-12-18T01:00:37;101817.03;;;-8.80;97.37
71465;BME280;59274;49.874;9.154;2022-12-18T01:03:03;101805.69;;;-8.80;97.12
71465;BME280;59274;49.874;9.154;2022-12-18T01:05:29;101807.31;;;-8.86;97.49
71465;BME280;59274;49.874;9.154;2022-12-18T01:07:55;101819.47;;;-8.78;97.03
71465;BME280;59274;49.874;9.154;2022-12-18T01:10:21;101811.19;;;-8.82;96.15
71465;BME280;59274;49.874;9.154;2022-12-18T01:12:46;101828.00;;;-8.89;96.38
71465;BME280;59274;49.874;9.154;2022-12-18T01:15:13;101823.94;;;-8.85;96.65
71465;BME280;59274;49.874;9.154;2022-12-18T01:17:39;101816.44;;;-8.95;96.40
71465;BME280;59274;49.874;9.154;2022-12-18T01:20:06;101820.69;;;-8.87;96.87
71465;BME280;59274;49.874;9.154;2022-12-18T01:22:31;101818.66;;;-8.85;96.78
71465;BME280;59274;49.874;9.154;2022-12-18T01:24:57;101819.88;;;-8.81;96.96
71465;BME280;59274;49.874;9.154;2022-12-18T01:27:22;101814.03;;;-8.90;97.25
71465;BME280;59274;49.874;9.154;2022-12-18T01:29:49;101818.06;;;-9.00;96.96
71465;BME280;59274;49.874;9.154;2022-12-18T01:32:14;101826.78;;;-9.00;96.79
71465;BME280;59274;49.874;9.154;2022-12-18T01:34:40;101828.38;;;-8.92;96.67
71465;BME280;59274;49.874;9.154;2022-12-18T01:37:05;101824.75;;;-8.85;96.18
71465;BME280;59274;49.874;9.154;2022-12-18T01:39:31;101829.63;;;-8.88;96.23
71465;BME280;59274;49.874;9.154;2022-12-18T01:42:02;101828.00;;;-8.89;96.45
71465;BME280;59274;49.874;9.154;2022-12-18T01:50:12;101829.00;;;-8.97;96.66
71465;BME280;59274;49.874;9.154;2022-12-18T01:52:40;101836.91;;;-9.03;96.46
71465;BME280;59274;49.874;9.154;2022-12-18T01:55:07;101835.28;;;-8.98;96.70
71465;BME280;59274;49.874;9.154;2022-12-18T01:57:33;101839.13;;;-9.00;96.44
71465;BME280;59274;49.874;9.154;2022-12-18T02:00:03;101832.84;;;-8.99;96.85
71465;BME280;59274;49.874;9.154;2022-12-18T02:02:32;101837.09;;;-8.98;96.22
71465;BME280;59274;49.874;9.154;2022-12-18T02:04:58;101831.03;;;-8.99;96.22
71465;BME280;59274;49.874;9.154;2022-12-18T02:10:29;101824.94;;;-8.86;96.97
71465;BME280;59274;49.874;9.154;2022-12-18T02:13:21;101828.81;;;-8.95;96.52
71465;BME280;59274;49.874;9.154;2022-12-18T02:18:40;101827.38;;;-8.98;95.65
71465;BME280;59274;49.874;9.154;2022-12-18T02:21:18;101830.00;;;-8.91;96.24
71465;BME280;59274;49.874;9.154;2022-12-18T02:26:59;101826.38;;;-8.97;96.57
71465;BME280;59274;49.874;9.154;2022-12-18T02:29:38;101819.28;;;-8.96;96.43
71465;BME280;59274;49.874;9.154;2022-12-18T02:32:09;101819.88;;;-9.01;96.29
71465;BME280;59274;49.874;9.154;2022-12-18T02:34:39;101829.41;;;-9.00;97.03
71465;BME280;59274;49.874;9.154;2022-12-18T02:37:09;101826.16;;;-9.02;97.03
71465;BME280;59274;49.874;9.154;2022-12-18T02:39:38;101825.38;;;-9.02;96.73
71465;BME280;59274;49.874;9.154;2022-12-18T02:42:05;101814.44;;;-8.99;96.94
71465;BME280;59274;49.874;9.154;2022-12-18T02:44:34;101813.41;;;-8.98;96.79
71465;BME280;59274;49.874;9.154;2022-12-18T02:47:01;101826.16;;;-9.02;96.88
71465;BME280;59274;49.874;9.154;2022-12-18T02:49:40;101824.94;;;-8.99;96.92
71465;BME280;59274;49.874;9.154;2022-12-18T02:57:22;101822.75;;;-8.96;96.91
71465;BME280;59274;49.874;9.154;2022-12-18T03:00:01;101818.69;;;-8.92;97.12
71465;BME280;59274;49.874;9.154;2022-12-18T03:05:19;101813.59;;;-8.87;97.23
71465;BME280;59274;49.874;9.154;2022-12-18T03:07:53;101808.16;;;-8.92;96.60
71465;BME280;59274;49.874;9.154;2022-12-18T03:10:25;101804.91;;;-9.00;96.91
71465;BME280;59274;49.874;9.154;2022-12-18T03:13:00;101797.63;;;-8.92;97.39
71465;BME280;59274;49.874;9.154;2022-12-18T03:15:31;101810.41;;;-8.95;96.94
71465;BME280;59274;49.874;9.154;2022-12-18T03:18:10;101815.44;;;-8.94;97.09
71465;BME280;59274;49.874;9.154;2022-12-18T03:20:39;101812.41;;;-8.97;96.73
71465;BME280;59274;49.874;9.154;2022-12-18T03:23:11;101815.41;;;-8.87;97.10
71465;BME280;59274;49.874;9.154;2022-12-18T03:25:40;101815.03;;;-8.91;97.02
71465;BME280;59274;49.874;9.154;2022-12-18T03:28:12;101822.50;;;-8.88;96.26
71465;BME280;59274;49.874;9.154;2022-12-18T03:30:40;101828.81;;;-8.89;96.15
71465;BME280;59274;49.874;9.154;2022-12-18T03:34:12;101821.09;;;-8.90;96.23
71465;BME280;59274;49.874;9.154;2022-12-18T03:36:18;101814.84;;;-8.89;96.84
71465;BME280;59274;49.874;9.154;2022-12-18T03:38:43;101812.22;;;-8.89;97.33
71465;BME280;59274;49.874;9.154;2022-12-18T03:49:24;101805.13;;;-8.89;97.06
71465;BME280;59274;49.874;9.154;2022-12-18T03:52:21;101802.50;;;-8.89;96.55
71465;BME280;59274;49.874;9.154;2022-12-18T03:54:45;101804.09;;;-8.81;96.62
71465;BME280;59274;49.874;9.154;2022-12-18T03:57:18;101814.22;;;-8.85;96.63
71465;BME280;59274;49.874;9.154;2022-12-18T03:59:45;101818.06;;;-8.87;97.07
71465;BME280;59274;49.874;9.154;2022-12-18T04:02:13;101810.97;;;-8.93;96.99
71465;BME280;59274;49.874;9.154;2022-12-18T04:04:41;101812.41;;;-8.91;97.05
71465;BME280;59274;49.874;9.154;2022-12-18T04:07:08;101813.00;;;-8.89;97.20
71465;BME280;59274;49.874;9.154;2022-12-18T04:09:35;101802.06;;;-8.86;96.70
71465;BME280;59274;49.874;9.154;2022-12-18T04:12:02;101808.94;;;-8.85;96.84
71465;BME280;59274;49.874;9.154;2022-12-18T04:14:27;101809.75;;;-8.78;97.06
71465;BME280;59274;49.874;9.154;2022-12-18T04:16:53;101800.22;;;-8.79;97.88
71465;BME280;59274;49.874;9.154;2022-12-18T04:19:18;101799.19;;;-8.71;98.04
71465;BME280;59274;49.874;9.154;2022-12-18T04:21:43;101805.09;;;-8.76;97.67
71465;BME280;59274;49.874;9.154;2022-12-18T04:24:09;101801.84;;;-8.78;97.47
71465;BME280;59274;49.874;9.154;2022-12-18T04:26:34;101801.03;;;-8.78;98.06
71465;BME280;59274;49.874;9.154;2022-12-18T04:29:00;101804.06;;;-8.68;98.04
71465;BME280;59274;49.874;9.154;2022-12-18T04:31:25;101803.84;;;-8.73;97.61
71465;BME280;59274;49.874;9.154;2022-12-18T04:33:51;101802.25;;;-8.74;97.63
71465;BME280;59274;49.874;9.154;2022-12-18T04:36:16;101799.81;;;-8.76;97.73
71465;BME280;59274;49.874;9.154;2022-12-18T04:38:42;101801.44;;;-8.75;97.61
71465;BME280;59274;49.874;9.154;2022-12-18T04:41:07;101798.00;;;-8.68;97.55
71465;BME280;59274;49.874;9.154;2022-12-18T04:43:32;101790.91;;;-8.75;97.00
71465;BME280;59274;49.874;9.154;2022-12-18T04:46:03;101791.72;;;-8.74;97.54
71465;BME280;59274;49.874;9.154;2022-12-18T04:48:28;101791.13;;;-8.76;97.46
71465;BME280;59274;49.874;9.154;2022-12-18T04:50:54;101784.63;;;-8.74;97.80
71465;BME280;59274;49.874;9.154;2022-12-18T04:53:19;101790.50;;;-8.72;98.57
71465;BME280;59274;49.874;9.154;2022-12-18T04:55:44;101792.13;;;-8.71;98.37
71465;BME280;59274;49.874;9.154;2022-12-18T04:58:10;101792.28;;;-8.65;98.61
71465;BME280;59274;49.874;9.154;2022-12-18T05:00:35;101788.63;;;-8.58;98.93
71465;BME280;59274;49.874;9.154;2022-12-18T05:03:01;101790.06;;;-8.62;98.75
71465;BME280;59274;49.874;9.154;2022-12-18T05:05:27;101797.16;;;-8.62;98.52
71465;BME280;59274;49.874;9.154;2022-12-18T05:07:53;101789.84;;;-8.54;98.61
71465;BME280;59274;49.874;9.154;2022-12-18T05:10:18;101794.91;;;-8.59;98.18
71465;BME280;59274;49.874;9.154;2022-12-18T05:12:43;101798.78;;;-8.61;98.42
71465;BME280;59274;49.874;9.154;2022-12-18T05:15:27;101799.38;;;-8.53;98.33
71465;BME280;59274;49.874;9.154;2022-12-18T05:17:52;101793.84;;;-8.45;97.87
71465;BME280;59274;49.874;9.154;2022-12-18T05:20:18;101797.69;;;-8.41;98.09
71465;BME280;59274;49.874;9.154;2022-12-18T05:22:44;101805.81;;;-8.42;98.77
71465;BME280;59274;49.874;9.154;2022-12-18T05:25:09;101800.94;;;-8.45;98.67
71465;BME280;59274;49.874;9.154;2022-12-18T05:27:35;101811.88;;;-8.42;98.81
71465;BME280;59274;49.874;9.154;2022-12-18T05:30:00;101797.06;;;-8.36;99.00
71465;BME280;59274;49.874;9.154;2022-12-18T05:32:26;101801.75;;;-8.45;98.58
71465;BME280;59274;49.874;9.154;2022-12-18T05:34:51;101807.22;;;-8.40;98.88
71465;BME280;59274;49.874;9.154;2022-12-18T05:37:16;101811.25;;;-8.37;98.67
71465;BME280;59274;49.874;9.154;2022-12-18T05:39:42;101805.56;;;-8.34;98.28
71465;BME280;59274;49.874;9.154;2022-12-18T05:42:08;101803.16;;;-8.42;97.92
71465;BME280;59274;49.874;9.154;2022-12-18T05:44:33;101803.78;;;-8.40;97.89
71465;BME280;59274;49.874;9.154;2022-12-18T05:46:59;101810.06;;;-8.41;98.42
71465;BME280;59274;49.874;9.154;2022-12-18T05:49:24;101808.03;;;-8.39;98.53
71465;BME280;59274;49.874;9.154;2022-12-18T05:51:50;101801.94;;;-8.40;98.29
71465;BME280;59274;49.874;9.154;2022-12-18T05:54:15;101808.22;;;-8.41;97.93
71465;BME280;59274;49.874;9.154;2022-12-18T05:56:41;101815.13;;;-8.40;97.79
71465;BME280;59274;49.874;9.154;2022-12-18T05:59:06;101800.72;;;-8.44;97.94
71465;BME280;59274;49.874;9.154;2022-12-18T06:01:31;101806.84;;;-8.50;97.47
71465;BME280;59274;49.874;9.154;2022-12-18T06:03:57;101802.78;;;-8.52;97.56
71465;BME280;59274;49.874;9.154;2022-12-18T06:06:25;101805.16;;;-8.38;98.55
71465;BME280;59274;49.874;9.154;2022-12-18T06:08:51;101803.56;;;-8.39;98.51
71465;BME280;59274;49.874;9.154;2022-12-18T06:11:20;101805.00;;;-8.49;97.96
71465;BME280;59274;49.874;9.154;2022-12-18T06:13:46;101806.00;;;-8.44;98.13
71465;BME280;59274;49.874;9.154;2022-12-18T06:16:11;101810.69;;;-8.46;98.12
71465;BME280;59274;49.874;9.154;2022-12-18T06:18:37;101814.75;;;-8.50;98.05
71465;BME280;59274;49.874;9.154;2022-12-18T06:21:02;101814.91;;;-8.45;98.65
71465;BME280;59274;49.874;9.154;2022-12-18T06:23:28;101819.59;;;-8.47;98.11
71465;BME280;59274;49.874;9.154;2022-12-18T06:25:54;101824.03;;;-8.41;97.75
71465;BME280;59274;49.874;9.154;2022-12-18T06:28:19;101826.91;;;-8.49;97.75
71465;BME280;59274;49.874;9.154;2022-12-18T06:30:46;101824.63;;;-8.45;98.01
71465;BME280;59274;49.874;9.154;2022-12-18T06:33:12;101819.56;;;-8.40;98.74
71465;BME280;59274;49.874;9.154;2022-12-18T06:35:37;101827.69;;;-8.42;98.61
71465;BME280;59274;49.874;9.154;2022-12-18T06:38:03;101823.03;;;-8.40;98.70
71465;BME280;59274;49.874;9.154;2022-12-18T06:40:29;101830.31;;;-8.42;98.74
71465;BME280;59274;49.874;9.154;2022-12-18T06:42:54;101830.31;;;-8.42;98.27
71465;BME280;59274;49.874;9.154;2022-12-18T06:45:20;101830.72;;;-8.45;98.18
71465;BME280;59274;49.874;9.154;2022-12-18T06:47:45;101835.38;;;-8.40;98.98
71465;BME280;59274;49.874;9.154;2022-12-18T06:50:12;101838.59;;;-8.38;98.49
71465;BME280;59274;49.874;9.154;2022-12-18T06:52:38;101844.91;;;-8.39;98.19
71465;BME280;59274;49.874;9.154;2022-12-18T06:55:05;101840.22;;;-8.37;98.35
71465;BME280;59274;49.874;9.154;2022-12-18T06:57:30;101842.47;;;-8.41;97.88
71465;BME280;59274;49.874;9.154;2022-12-18T06:59:56;101843.28;;;-8.40;98.08
71465;BME280;59274;49.874;9.154;2022-12-18T07:02:21;101845.72;;;-8.45;98.00
71465;BME280;59274;49.874;9.154;2022-12-18T07:04:49;101854.19;;;-8.37;98.50
71465;BME280;59274;49.874;9.154;2022-12-18T07:07:15;101850.78;;;-8.44;98.06
71465;BME280;59274;49.874;9.154;2022-12-18T07:09:40;101848.94;;;-8.43;98.90
71465;BME280;59274;49.874;9.154;2022-12-18T07:12:05;101857.44;;;-8.35;98.95
71465;BME280;59274;49.874;9.154;2022-12-18T07:14:31;101871.63;;;-8.36;99.04
71465;BME280;59274;49.874;9.154;2022-12-18T07:16:57;101866.09;;;-8.27;99.42
71465;BME280;59274;49.874;9.154;2022-12-18T07:19:23;101860.78;;;-8.14;99.56
71465;BME280;59274;49.874;9.154;2022-12-18T07:21:50;101861.41;;;-8.12;99.77
71465;BME280;59274;49.874;9.154;2022-12-18T07:24:15;101863.03;;;-8.11;99.01
71465;BME280;59274;49.874;9.154;2022-12-18T07:26:41;101856.72;;;-8.17;98.02
71465;BME280;59274;49.874;9.154;2022-12-18T07:29:06;101863.41;;;-8.14;98.05
71465;BME280;59274;49.874;9.154;2022-12-18T07:31:31;101871.91;;;-8.06;99.17
71465;BME280;59274;49.874;9.154;2022-12-18T07:33:57;101866.78;;;-7.94;99.21
71465;BME280;59274;49.874;9.154;2022-12-18T07:36:22;101874.25;;;-7.84;99.22
71465;BME280;59274;49.874;9.154;2022-12-18T07:38:49;101860.44;;;-7.80;98.84
71465;BME280;59274;49.874;9.154;2022-12-18T07:41:15;101857.16;;;-7.69;98.82
71465;BME280;59274;49.874;9.154;2022-12-18T07:43:41;101856.28;;;-7.63;98.49
71465;BME280;59274;49.874;9.154;2022-12-18T07:46:08;101854.47;;;-7.62;98.29
71465;BME280;59274;49.874;9.154;2022-12-18T07:48:34;101854.66;;;-7.64;97.76
71465;BME280;59274;49.874;9.154;2022-12-18T07:51:04;101858.75;;;-7.68;97.60
71465;BME280;59274;49.874;9.154;2022-12-18T07:53:31;101868.50;;;-7.68;97.48
71465;BME280;59274;49.874;9.154;2022-12-18T07:55:58;101872.53;;;-7.66;97.25
71465;BME280;59274;49.874;9.154;2022-12-18T07:58:23;101871.50;;;-7.65;97.48
71465;BME280;59274;49.874;9.154;2022-12-18T08:00:49;101884.31;;;-7.68;97.55
71465;BME280;59274;49.874;9.154;2022-12-18T08:03:14;101893.44;;;-7.71;97.39
71465;BME280;59274;49.874;9.154;2022-12-18T08:05:40;101890.44;;;-7.81;97.29
71465;BME280;59274;49.874;9.154;2022-12-18T08:08:05;101892.88;;;-7.79;97.17
71465;BME280;59274;49.874;9.154;2022-12-18T08:10:31;101880.13;;;-7.82;97.06
71465;BME280;59274;49.874;9.154;2022-12-18T08:12:56;101895.50;;;-7.79;96.81
71465;BME280;59274;49.874;9.154;2022-12-18T08:15:22;101896.75;;;-7.82;96.77
71465;BME280;59274;49.874;9.154;2022-12-18T08:17:47;101903.63;;;-7.81;96.88
71465;BME280;59274;49.874;9.154;2022-12-18T08:20:13;101898.34;;;-7.74;96.63
71465;BME280;59274;49.874;9.154;2022-12-18T08:22:41;101888.78;;;-7.69;96.60
71465;BME280;59274;49.874;9.154;2022-12-18T08:25:07;101887.97;;;-7.69;96.11
71465;BME280;59274;49.874;9.154;2022-12-18T08:27:32;101886.31;;;-7.64;95.76
71465;BME280;59274;49.874;9.154;2022-12-18T08:29:58;101887.94;;;-7.63;95.47
71465;BME280;59274;49.874;9.154;2022-12-18T08:32:24;101889.16;;;-7.65;95.07
71465;BME280;59274;49.874;9.154;2022-12-18T08:34:50;101895.84;;;-7.63;94.92
71465;BME280;59274;49.874;9.154;2022-12-18T08:37:15;101900.97;;;-7.68;94.79
71465;BME280;59274;49.874;9.154;2022-12-18T08:39:41;101891.78;;;-7.65;95.09
71465;BME280;59274;49.874;9.154;2022-12-18T08:42:06;101888.78;;;-7.69;94.98
71465;BME280;59274;49.874;9.154;2022-12-18T08:44:52;101889.13;;;-7.59;94.75
71465;BME280;59274;49.874;9.154;2022-12-18T08:47:17;101886.47;;;-7.59;94.34
71465;BME280;59274;49.874;9.154;2022-12-18T08:49:43;101875.75;;;-7.64;94.21
71465;BME280;59274;49.874;9.154;2022-12-18T08:52:08;101885.13;;;-7.68;94.06
71465;BME280;59274;49.874;9.154;2022-12-18T08:54:34;101895.66;;;-7.61;94.11
71465;BME280;59274;49.874;9.154;2022-12-18T08:56:59;101888.75;;;-7.62;94.57
71465;BME280;59274;49.874;9.154;2022-12-18T08:59:24;101888.91;;;-7.57;94.11
71465;BME280;59274;49.874;9.154;2022-12-18T09:01:54;101884.66;;;-7.58;94.48
71465;BME280;59274;49.874;9.154;2022-12-18T09:04:20;101882.03;;;-7.58;94.59
71465;BME280;59274;49.874;9.154;2022-12-18T09:06:45;101883.81;;;-7.52;94.79
71465;BME280;59274;49.874;9.154;2022-12-18T09:09:10;101878.16;;;-7.56;94.66
71465;BME280;59274;49.874;9.154;2022-12-18T09:11:36;101879.34;;;-7.52;95.00
71465;BME280;59274;49.874;9.154;2022-12-18T09:14:02;101880.16;;;-7.51;94.59
71465;BME280;59274;49.874;9.154;2022-12-18T09:16:28;101884.81;;;-7.46;94.79
71465;BME280;59274;49.874;9.154;2022-12-18T09:18:55;101894.16;;;-7.51;94.47
71465;BME280;59274;49.874;9.154;2022-12-18T09:21:26;101895.97;;;-7.51;94.18
71465;BME280;59274;49.874;9.154;2022-12-18T09:23:53;101904.09;;;-7.46;93.67
71465;BME280;59274;49.874;9.154;2022-12-18T09:26:19;101905.69;;;-7.45;94.10
71465;BME280;59274;49.874;9.154;2022-12-18T09:28:45;101903.25;;;-7.40;94.20
71465;BME280;59274;49.874;9.154;2022-12-18T09:31:12;101911.31;;;-7.35;94.17
71465;BME280;59274;49.874;9.154;2022-12-18T09:33:37;101912.13;;;-7.34;94.08
71465;BME280;59274;49.874;9.154;2022-12-18T09:36:05;101916.94;;;-7.25;94.35
71465;BME280;59274;49.874;9.154;2022-12-18T09:38:32;101914.13;;;-7.30;94.38
71465;BME280;59274;49.874;9.154;2022-12-18T09:43:48;101916.56;;;-7.28;93.80
71465;BME280;59274;49.874;9.154;2022-12-18T09:46:23;101914.88;;;-7.23;94.35
71465;BME280;59274;49.874;9.154;2022-12-18T09:48:54;101914.47;;;-7.20;94.25
71465;BME280;59274;49.874;9.154;2022-12-18T09:51:31;101909.31;;;-7.08;94.19
71465;BME280;59274;49.874;9.154;2022-12-18T09:54:07;101901.72;;;-6.98;93.76
71465;BME280;59274;49.874;9.154;2022-12-18T09:56:41;101896.00;;;-6.95;93.59
71465;BME280;59274;49.874;9.154;2022-12-18T09:59:32;101902.78;;;-6.81;94.02
71465;BME280;59274;49.874;9.154;2022-12-18T10:01:59;101897.56;;;-6.62;93.87
71465;BME280;59274;49.874;9.154;2022-12-18T10:04:24;101898.13;;;-6.54;93.40
71465;BME280;59274;49.874;9.154;2022-12-18T10:07:03;101897.97;;;-6.41;92.55
71465;BME280;59274;49.874;9.154;2022-12-18T10:09:42;101898.72;;;-6.34;92.39
71465;BME280;59274;49.874;9.154;2022-12-18T10:12:25;101888.78;;;-6.38;92.08
71465;BME280;59274;49.874;9.154;2022-12-18T10:14:57;101887.91;;;-6.32;92.49
71465;BME280;59274;49.874;9.154;2022-12-18T10:19:59;101873.00;;;-6.08;92.32
71465;BME280;59274;49.874;9.154;2022-12-18T10:28:16;101892.91;;;-5.58;91.16
71465;BME280;59274;49.874;9.154;2022-12-18T10:30:43;101893.25;;;-5.54;91.16
71465;BME280;59274;49.874;9.154;2022-12-18T10:33:18;101893.53;;;-5.44;91.10
71465;BME280;59274;49.874;9.154;2022-12-18T10:35:44;101885.84;;;-5.34;90.89
71465;BME280;59274;49.874;9.154;2022-12-18T10:43:14;101875.91;;;-5.08;90.73
71465;BME280;59274;49.874;9.154;2022-12-18T10:45:41;101877.88;;;-4.92;89.63
71465;BME280;59274;49.874;9.154;2022-12-18T10:48:21;101872.47;;;-4.86;89.32
71465;BME280;59274;49.874;9.154;2022-12-18T10:50:51;101863.72;;;-4.75;89.10
71465;BME280;59274;49.874;9.154;2022-12-18T10:53:28;101866.97;;;-4.84;89.01
71465;BME280;59274;49.874;9.154;2022-12-18T10:55:56;101858.66;;;-4.99;89.47
71465;BME280;59274;49.874;9.154;2022-12-18T10:58:34;101865.19;;;-5.02;89.62
71465;BME280;59274;49.874;9.154;2022-12-18T11:01:13;101862.00;;;-4.92;89.79
71465;BME280;59274;49.874;9.154;2022-12-18T11:04:01;101866.38;;;-4.86;90.32
71465;BME280;59274;49.874;9.154;2022-12-18T11:06:25;101862.91;;;-4.75;89.68
71465;BME280;59274;49.874;9.154;2022-12-18T11:09:02;101876.50;;;-4.60;89.63
71465;BME280;59274;49.874;9.154;2022-12-18T11:11:28;101870.75;;;-4.45;89.31
71465;BME280;59274;49.874;9.154;2022-12-18T11:14:02;101854.44;;;-4.25;88.94
71465;BME280;59274;49.874;9.154;2022-12-18T11:16:30;101859.63;;;-4.19;88.71
71465;BME280;59274;49.874;9.154;2022-12-18T11:19:28;101866.00;;;-4.20;88.39
71465;BME280;59274;49.874;9.154;2022-12-18T11:21:55;101863.88;;;-4.06;87.67
71465;BME280;59274;49.874;9.154;2022-12-18T11:24:36;101849.19;;;-3.85;87.12
71465;BME280;59274;49.874;9.154;2022-12-18T11:27:04;101854.94;;;-3.88;87.58
71465;BME280;59274;49.874;9.154;2022-12-18T11:29:37;101859.16;;;-3.76;87.30
71465;BME280;59274;49.874;9.154;2022-12-18T11:34:44;101838.91;;;-3.37;85.83
71465;BME280;59274;49.874;9.154;2022-12-18T11:37:11;101824.75;;;-3.42;85.49
71465;BME280;59274;49.874;9.154;2022-12-18T11:40:18;101822.41;;;-3.39;85.57
71465;BME280;59274;49.874;9.154;2022-12-18T11:42:55;101828.03;;;-3.35;85.78
71465;BME280;59274;49.874;9.154;2022-12-18T11:45:34;101823.38;;;-3.28;85.56
71465;BME280;59274;49.874;9.154;2022-12-18T11:48:28;101819.53;;;-3.21;85.68
71465;BME280;59274;49.874;9.154;2022-12-18T11:50:57;101818.16;;;-3.06;85.52
71465;BME280;59274;49.874;9.154;2022-12-18T11:53:25;101819.84;;;-3.17;84.86
71465;BME280;59274;49.874;9.154;2022-12-18T11:56:26;101816.44;;;-3.12;85.13
71465;BME280;59274;49.874;9.154;2022-12-18T12:16:54;101821.06;;;-3.08;86.89
71465;BME280;59274;49.874;9.154;2022-12-18T12:30:03;101807.44;;;-2.95;86.69
71465;BME280;59274;49.874;9.154;2022-12-18T12:40:54;101813.03;;;-2.74;86.00
71465;BME280;59274;49.874;9.154;2022-12-18T12:45:58;101820.25;;;-2.70;85.72
71465;BME280;59274;49.874;9.154;2022-12-18T12:49:07;101823.09;;;-2.77;86.11
71465;BME280;59274;49.874;9.154;2022-12-18T12:51:39;101822.22;;;-2.82;86.28
71465;BME280;59274;49.874;9.154;2022-12-18T12:54:16;101806.34;;;-2.77;86.46
71465;BME280;59274;49.874;9.154;2022-12-18T12:56:57;101818.59;;;-2.76;85.96
71465;BME280;59274;49.874;9.154;2022-12-18T12:59:34;101812.91;;;-2.85;86.22
71465;BME280;59274;49.874;9.154;2022-12-18T13:02:04;101803.56;;;-2.87;86.36
71465;BME280;59274;49.874;9.154;2022-12-18T13:04:47;101801.53;;;-2.80;86.20
71465;BME280;59274;49.874;9.154;2022-12-18T13:13:07;101773.97;;;-2.74;86.33
71465;BME280;59274;49.874;9.154;2022-12-18T13:16:04;101772.34;;;-2.75;86.40
71465;BME280;59274;49.874;9.154;2022-12-18T13:18:30;101772.59;;;-2.77;86.99
71465;BME280;59274;49.874;9.154;2022-12-18T13:31:06;101761.94;;;-2.60;87.38
71465;BME280;59274;49.874;9.154;2022-12-18T13:38:37;101771.47;;;-2.64;87.09
71465;BME280;59274;49.874;9.154;2022-12-18T13:43:46;101779.13;;;-2.46;87.23
71465;BME280;59274;49.874;9.154;2022-12-18T13:48:53;101773.94;;;-2.35;87.42
71465;BME280;59274;49.874;9.154;2022-12-18T13:51:20;101770.09;;;-2.45;86.91
71465;BME280;59274;49.874;9.154;2022-12-18T13:53:50;101774.56;;;-2.50;87.69
71465;BME280;59274;49.874;9.154;2022-12-18T13:56:18;101768.25;;;-2.44;87.39
71465;BME280;59274;49.874;9.154;2022-12-18T13:59:13;101777.03;;;-2.44;87.37
71465;BME280;59274;49.874;9.154;2022-12-18T14:01:43;101777.84;;;-2.43;87.16
71465;BME280;59274;49.874;9.154;2022-12-18T14:04:20;101782.09;;;-2.42;87.66
71465;BME280;59274;49.874;9.154;2022-12-18T14:06:47;101782.16;;;-2.37;88.00
71465;BME280;59274;49.874;9.154;2022-12-18T14:09:15;101777.31;;;-2.40;87.22
71465;BME280;59274;49.874;9.154;2022-12-18T14:11:46;101775.22;;;-2.38;87.85
71465;BME280;59274;49.874;9.154;2022-12-18T14:14:14;101773.94;;;-2.35;87.83
71465;BME280;59274;49.874;9.154;2022-12-18T14:16:41;101759.75;;;-2.41;88.28
71465;BME280;59274;49.874;9.154;2022-12-18T14:19:17;101770.22;;;-2.34;87.71
71465;BME280;59274;49.874;9.154;2022-12-18T14:21:47;101767.25;;;-2.38;87.50
71465;BME280;59274;49.874;9.154;2022-12-18T14:26:41;101772.81;;;-2.40;87.57
71465;BME280;59274;49.874;9.154;2022-12-18T14:29:29;101778.38;;;-2.41;88.31
71465;BME280;59274;49.874;9.154;2022-12-18T14:34:31;101735.72;;;-2.51;89.46
71465;BME280;59274;49.874;9.154;2022-12-18T14:36:56;101751.53;;;-2.61;88.71
71465;BME280;59274;49.874;9.154;2022-12-18T14:39:22;101746.41;;;-2.68;88.80
71465;BME280;59274;49.874;9.154;2022-12-18T14:41:49;101740.88;;;-2.83;89.37
71465;BME280;59274;49.874;9.154;2022-12-18T14:44:15;101739.44;;;-2.91;90.02
71465;BME280;59274;49.874;9.154;2022-12-18T14:46:45;101741.63;;;-2.88;90.28
71465;BME280;59274;49.874;9.154;2022-12-18T14:49:18;101737.69;;;-2.85;90.11
71465;BME280;59274;49.874;9.154;2022-12-18T14:51:56;101736.09;;;-3.03;90.65
71465;BME280;59274;49.874;9.154;2022-12-18T14:54:22;101738.94;;;-3.09;91.01
71465;BME280;59274;49.874;9.154;2022-12-18T14:56:51;101732.91;;;-3.22;91.79
71465;BME280;59274;49.874;9.154;2022-12-18T14:59:21;101731.59;;;-3.19;91.85
71465;BME280;59274;49.874;9.154;2022-12-18T15:04:36;101731.06;;;-3.21;91.52